sensor_id;sensor_type;location;lat;lon;timestamp;P1;durP1;ratioP1;P2;durP2;ratioP2
68803;SDS011;55787;52.678;13.314;2024-01-11T00:02:20;22.73;;;6.53;;
68803;SDS011;55787;52.678;13.314;2024-01-11T00:04:49;23.42;;;5.95;;
68803;SDS011;55787;52.678;13.314;2024-01-11T00:07:16;23.45;;;4.35;;
68803;SDS011;55787;52.678;13.314;2024-01-11T00:09:43;13.10;;;2.77;;
68803;SDS011;55787;52.678;13.314;2024-01-11T00:12:10;20.92;;;6.07;;
68803;SDS011;55787;52.678;13.314;2024-01-11T00:14:37;22.73;;;6.25;;
68803;SDS011;55787;52.678;13.314;2024-01-11T00:17:04;18.80;;;4.53;;
68803;SDS011;55787;52.678;13.314;2024-01-11T00:19:30;21.83;;;5.22;;
68803;SDS011;55787;52.678;13.314;2024-01-11T00:21:58;21.70;;;5.40;;
68803;SDS011;55787;52.678;13.314;2024-01-11T00:24:24;19.40;;;5.38;;
68803;SDS011;55787;52.678;13.314;2024-01-11T00:26:51;14.90;;;4.07;;
68803;SDS011;55787;52.678;13.314;2024-01-11T00:29:17;20.13;;;4.47;;
68803;SDS011;55787;52.678;13.314;2024-01-11T00:31:44;17.50;;;4.93;;
68803;SDS011;55787;52.678;13.314;2024-01-11T00:34:11;18.93;;;5.10;;
68803;SDS011;55787;52.678;13.314;2024-01-11T00:36:37;21.98;;;5.30;;
68803;SDS011;55787;52.678;13.314;2024-01-11T00:39:04;18.95;;;4.88;;
68803;SDS011;55787;52.678;13.314;2024-01-11T00:41:31;19.50;;;4.88;;
68803;SDS011;55787;52.678;13.314;2024-01-11T00:43:58;20.35;;;5.15;;
68803;SDS011;55787;52.678;13.314;2024-01-11T00:46:24;19.77;;;4.83;;
68803;SDS011;55787;52.678;13.314;2024-01-11T00:48:51;22.83;;;5.65;;
68803;SDS011;55787;52.678;13.314;2024-01-11T00:51:22;18.58;;;4.70;;
68803;SDS011;55787;52.678;13.314;2024-01-11T00:53:48;18.73;;;4.63;;
68803;SDS011;55787;52.678;13.314;2024-01-11T00:56:16;22.33;;;5.53;;
68803;SDS011;55787;52.678;13.314;2024-01-11T00:58:43;20.80;;;4.73;;
68803;SDS011;55787;52.678;13.314;2024-01-11T01:01:09;20.92;;;5.53;;
68803;SDS011;55787;52.678;13.314;2024-01-11T01:03:37;25.80;;;5.10;;
68803;SDS011;55787;52.678;13.314;2024-01-11T01:06:04;18.48;;;4.60;;
68803;SDS011;55787;52.678;13.314;2024-01-11T01:08:31;18.95;;;4.28;;
68803;SDS011;55787;52.678;13.314;2024-01-11T01:10:58;24.80;;;4.73;;
68803;SDS011;55787;52.678;13.314;2024-01-11T01:13:25;13.48;;;3.25;;
68803;SDS011;55787;52.678;13.314;2024-01-11T01:15:51;18.92;;;4.60;;
68803;SDS011;55787;52.678;13.314;2024-01-11T01:18:18;24.42;;;4.82;;
68803;SDS011;55787;52.678;13.314;2024-01-11T01:20:45;17.08;;;5.10;;
68803;SDS011;55787;52.678;13.314;2024-01-11T01:23:12;16.47;;;3.97;;
68803;SDS011;55787;52.678;13.314;2024-01-11T01:25:38;19.52;;;4.28;;
68803;SDS011;55787;52.678;13.314;2024-01-11T01:28:05;17.45;;;3.38;;
68803;SDS011;55787;52.678;13.314;2024-01-11T01:30:31;19.23;;;4.28;;
68803;SDS011;55787;52.678;13.314;2024-01-11T01:32:58;19.67;;;3.38;;
68803;SDS011;55787;52.678;13.314;2024-01-11T01:35:25;15.03;;;3.97;;
68803;SDS011;55787;52.678;13.314;2024-01-11T01:37:51;16.33;;;3.58;;
68803;SDS011;55787;52.678;13.314;2024-01-11T01:40:18;16.63;;;3.70;;
68803;SDS011;55787;52.678;13.314;2024-01-11T01:42:45;19.08;;;3.58;;
68803;SDS011;55787;52.678;13.314;2024-01-11T01:45:12;15.23;;;3.20;;
68803;SDS011;55787;52.678;13.314;2024-01-11T01:47:40;17.53;;;3.50;;
68803;SDS011;55787;52.678;13.314;2024-01-11T01:50:09;13.75;;;3.15;;
68803;SDS011;55787;52.678;13.314;2024-01-11T01:52:37;16.92;;;3.28;;
68803;SDS011;55787;52.678;13.314;2024-01-11T01:55:06;18.15;;;3.22;;
68803;SDS011;55787;52.678;13.314;2024-01-11T01:57:35;19.15;;;3.15;;
68803;SDS011;55787;52.678;13.314;2024-01-11T02:00:02;13.13;;;2.73;;
68803;SDS011;55787;52.678;13.314;2024-01-11T02:02:30;12.40;;;2.78;;
68803;SDS011;55787;52.678;13.314;2024-01-11T02:04:59;15.93;;;3.03;;
68803;SDS011;55787;52.678;13.314;2024-01-11T02:07:26;14.65;;;3.10;;
68803;SDS011;55787;52.678;13.314;2024-01-11T02:09:53;13.43;;;2.83;;
68803;SDS011;55787;52.678;13.314;2024-01-11T02:12:20;13.10;;;2.87;;
68803;SDS011;55787;52.678;13.314;2024-01-11T02:14:47;11.10;;;2.33;;
68803;SDS011;55787;52.678;13.314;2024-01-11T02:17:14;12.13;;;2.47;;
68803;SDS011;55787;52.678;13.314;2024-01-11T02:19:40;15.98;;;2.70;;
68803;SDS011;55787;52.678;13.314;2024-01-11T02:25:06;12.37;;;2.17;;
68803;SDS011;55787;52.678;13.314;2024-01-11T02:27:48;15.65;;;2.85;;
68803;SDS011;55787;52.678;13.314;2024-01-11T02:30:16;14.32;;;2.17;;
68803;SDS011;55787;52.678;13.314;2024-01-11T02:32:44;11.80;;;2.05;;
68803;SDS011;55787;52.678;13.314;2024-01-11T02:35:15;11.10;;;2.17;;
68803;SDS011;55787;52.678;13.314;2024-01-11T02:37:42;11.10;;;2.20;;
68803;SDS011;55787;52.678;13.314;2024-01-11T02:40:10;13.45;;;2.85;;
68803;SDS011;55787;52.678;13.314;2024-01-11T02:42:39;13.52;;;1.92;;
68803;SDS011;55787;52.678;13.314;2024-01-11T02:45:06;5.88;;;0.90;;
68803;SDS011;55787;52.678;13.314;2024-01-11T02:47:33;14.60;;;2.30;;
68803;SDS011;55787;52.678;13.314;2024-01-11T02:50:00;12.73;;;2.23;;
68803;SDS011;55787;52.678;13.314;2024-01-11T02:52:26;11.75;;;2.60;;
68803;SDS011;55787;52.678;13.314;2024-01-11T02:54:53;14.07;;;2.20;;
68803;SDS011;55787;52.678;13.314;2024-01-11T02:57:20;13.50;;;2.40;;
68803;SDS011;55787;52.678;13.314;2024-01-11T02:59:46;15.65;;;2.60;;
68803;SDS011;55787;52.678;13.314;2024-01-11T03:02:13;12.40;;;2.90;;
68803;SDS011;55787;52.678;13.314;2024-01-11T03:04:39;15.00;;;2.80;;
68803;SDS011;55787;52.678;13.314;2024-01-11T03:07:06;15.88;;;3.20;;
68803;SDS011;55787;52.678;13.314;2024-01-11T03:09:33;16.52;;;3.20;;
68803;SDS011;55787;52.678;13.314;2024-01-11T03:12:00;13.80;;;2.75;;
68803;SDS011;55787;52.678;13.314;2024-01-11T03:14:27;17.13;;;3.47;;
68803;SDS011;55787;52.678;13.314;2024-01-11T03:16:53;15.45;;;3.30;;
68803;SDS011;55787;52.678;13.314;2024-01-11T03:19:20;16.13;;;3.10;;
68803;SDS011;55787;52.678;13.314;2024-01-11T03:21:47;16.98;;;3.38;;
68803;SDS011;55787;52.678;13.314;2024-01-11T03:24:13;16.95;;;3.30;;
68803;SDS011;55787;52.678;13.314;2024-01-11T03:26:40;14.97;;;3.10;;
68803;SDS011;55787;52.678;13.314;2024-01-11T03:29:07;13.95;;;2.70;;
68803;SDS011;55787;52.678;13.314;2024-01-11T03:31:34;15.88;;;3.15;;
68803;SDS011;55787;52.678;13.314;2024-01-11T03:34:01;18.05;;;3.10;;
68803;SDS011;55787;52.678;13.314;2024-01-11T03:36:28;16.42;;;3.38;;
68803;SDS011;55787;52.678;13.314;2024-01-11T03:38:54;16.73;;;3.80;;
68803;SDS011;55787;52.678;13.314;2024-01-11T03:41:21;18.50;;;3.20;;
68803;SDS011;55787;52.678;13.314;2024-01-11T03:43:48;17.88;;;2.85;;
68803;SDS011;55787;52.678;13.314;2024-01-11T03:46:16;18.13;;;3.17;;
68803;SDS011;55787;52.678;13.314;2024-01-11T03:48:43;15.00;;;3.33;;
68803;SDS011;55787;52.678;13.314;2024-01-11T03:51:09;17.27;;;3.43;;
68803;SDS011;55787;52.678;13.314;2024-01-11T03:53:36;14.88;;;3.10;;
68803;SDS011;55787;52.678;13.314;2024-01-11T03:56:04;16.05;;;3.13;;
68803;SDS011;55787;52.678;13.314;2024-01-11T03:58:31;16.50;;;3.20;;
68803;SDS011;55787;52.678;13.314;2024-01-11T04:00:59;14.18;;;2.83;;
68803;SDS011;55787;52.678;13.314;2024-01-11T04:03:26;19.23;;;3.47;;
68803;SDS011;55787;52.678;13.314;2024-01-11T04:05:52;18.15;;;3.47;;
68803;SDS011;55787;52.678;13.314;2024-01-11T04:08:19;16.75;;;3.00;;
68803;SDS011;55787;52.678;13.314;2024-01-11T04:10:46;16.15;;;3.55;;
68803;SDS011;55787;52.678;13.314;2024-01-11T04:13:12;18.38;;;3.50;;
68803;SDS011;55787;52.678;13.314;2024-01-11T04:15:39;13.63;;;2.93;;
68803;SDS011;55787;52.678;13.314;2024-01-11T04:18:07;18.88;;;3.28;;
68803;SDS011;55787;52.678;13.314;2024-01-11T04:20:34;23.42;;;3.85;;
68803;SDS011;55787;52.678;13.314;2024-01-11T04:23:00;15.60;;;3.38;;
68803;SDS011;55787;52.678;13.314;2024-01-11T04:25:27;20.77;;;4.28;;
68803;SDS011;55787;52.678;13.314;2024-01-11T04:27:54;15.63;;;3.27;;
68803;SDS011;55787;52.678;13.314;2024-01-11T04:30:20;21.33;;;3.58;;
68803;SDS011;55787;52.678;13.314;2024-01-11T04:32:47;20.00;;;4.05;;
68803;SDS011;55787;52.678;13.314;2024-01-11T04:35:14;17.35;;;4.32;;
68803;SDS011;55787;52.678;13.314;2024-01-11T04:37:40;22.23;;;4.53;;
68803;SDS011;55787;52.678;13.314;2024-01-11T04:40:07;19.07;;;4.33;;
68803;SDS011;55787;52.678;13.314;2024-01-11T04:42:34;20.85;;;4.38;;
68803;SDS011;55787;52.678;13.314;2024-01-11T04:45:00;23.95;;;4.70;;
68803;SDS011;55787;52.678;13.314;2024-01-11T04:47:27;21.67;;;4.25;;
68803;SDS011;55787;52.678;13.314;2024-01-11T04:49:54;19.90;;;4.57;;
68803;SDS011;55787;52.678;13.314;2024-01-11T04:52:21;19.60;;;4.10;;
68803;SDS011;55787;52.678;13.314;2024-01-11T04:54:47;19.35;;;3.88;;
68803;SDS011;55787;52.678;13.314;2024-01-11T04:57:14;22.10;;;4.47;;
68803;SDS011;55787;52.678;13.314;2024-01-11T04:59:40;22.05;;;5.10;;
68803;SDS011;55787;52.678;13.314;2024-01-11T05:02:07;27.40;;;5.40;;
68803;SDS011;55787;52.678;13.314;2024-01-11T05:04:33;23.27;;;4.57;;
68803;SDS011;55787;52.678;13.314;2024-01-11T05:07:00;23.60;;;5.13;;
68803;SDS011;55787;52.678;13.314;2024-01-11T05:09:27;23.52;;;5.57;;
68803;SDS011;55787;52.678;13.314;2024-01-11T05:11:53;23.85;;;4.20;;
68803;SDS011;55787;52.678;13.314;2024-01-11T05:14:20;21.30;;;4.05;;
68803;SDS011;55787;52.678;13.314;2024-01-11T05:16:47;22.53;;;4.60;;
68803;SDS011;55787;52.678;13.314;2024-01-11T05:19:13;20.25;;;4.15;;
68803;SDS011;55787;52.678;13.314;2024-01-11T05:21:40;26.17;;;5.05;;
68803;SDS011;55787;52.678;13.314;2024-01-11T05:24:07;27.50;;;4.88;;
68803;SDS011;55787;52.678;13.314;2024-01-11T05:26:37;23.70;;;5.50;;
68803;SDS011;55787;52.678;13.314;2024-01-11T05:29:04;23.27;;;4.43;;
68803;SDS011;55787;52.678;13.314;2024-01-11T05:31:31;28.98;;;5.32;;
68803;SDS011;55787;52.678;13.314;2024-01-11T05:33:58;21.38;;;4.85;;
68803;SDS011;55787;52.678;13.314;2024-01-11T05:36:24;23.67;;;5.03;;
68803;SDS011;55787;52.678;13.314;2024-01-11T05:38:51;27.23;;;4.75;;
68803;SDS011;55787;52.678;13.314;2024-01-11T05:41:18;26.00;;;5.57;;
68803;SDS011;55787;52.678;13.314;2024-01-11T05:43:44;26.40;;;5.63;;
68803;SDS011;55787;52.678;13.314;2024-01-11T05:46:11;26.73;;;5.30;;
68803;SDS011;55787;52.678;13.314;2024-01-11T05:48:38;26.00;;;5.50;;
68803;SDS011;55787;52.678;13.314;2024-01-11T05:51:04;23.23;;;5.03;;
68803;SDS011;55787;52.678;13.314;2024-01-11T05:53:31;22.03;;;5.27;;
68803;SDS011;55787;52.678;13.314;2024-01-11T05:56:01;22.17;;;5.00;;
68803;SDS011;55787;52.678;13.314;2024-01-11T05:58:33;28.92;;;5.38;;
68803;SDS011;55787;52.678;13.314;2024-01-11T06:00:59;27.40;;;5.88;;
68803;SDS011;55787;52.678;13.314;2024-01-11T06:03:26;26.65;;;5.35;;
68803;SDS011;55787;52.678;13.314;2024-01-11T06:05:54;27.77;;;6.03;;
68803;SDS011;55787;52.678;13.314;2024-01-11T06:08:21;28.63;;;5.90;;
68803;SDS011;55787;52.678;13.314;2024-01-11T06:10:47;27.45;;;5.60;;
68803;SDS011;55787;52.678;13.314;2024-01-11T06:13:14;26.02;;;5.10;;
68803;SDS011;55787;52.678;13.314;2024-01-11T06:15:40;32.58;;;6.80;;
68803;SDS011;55787;52.678;13.314;2024-01-11T06:18:07;27.20;;;6.10;;
68803;SDS011;55787;52.678;13.314;2024-01-11T06:20:34;29.23;;;6.05;;
68803;SDS011;55787;52.678;13.314;2024-01-11T06:23:00;32.85;;;6.15;;
68803;SDS011;55787;52.678;13.314;2024-01-11T06:25:27;29.35;;;6.10;;
68803;SDS011;55787;52.678;13.314;2024-01-11T06:27:54;33.53;;;7.15;;
68803;SDS011;55787;52.678;13.314;2024-01-11T06:30:21;27.43;;;5.73;;
68803;SDS011;55787;52.678;13.314;2024-01-11T06:32:47;31.35;;;6.60;;
68803;SDS011;55787;52.678;13.314;2024-01-11T06:35:14;34.08;;;6.50;;
68803;SDS011;55787;52.678;13.314;2024-01-11T06:37:41;31.30;;;6.57;;
68803;SDS011;55787;52.678;13.314;2024-01-11T06:40:07;28.42;;;6.00;;
68803;SDS011;55787;52.678;13.314;2024-01-11T06:42:35;32.27;;;6.90;;
68803;SDS011;55787;52.678;13.314;2024-01-11T06:45:01;28.85;;;7.03;;
68803;SDS011;55787;52.678;13.314;2024-01-11T06:47:29;28.42;;;6.30;;
68803;SDS011;55787;52.678;13.314;2024-01-11T06:49:56;29.98;;;6.30;;
68803;SDS011;55787;52.678;13.314;2024-01-11T06:52:25;29.73;;;6.82;;
68803;SDS011;55787;52.678;13.314;2024-01-11T06:54:52;34.57;;;7.20;;
68803;SDS011;55787;52.678;13.314;2024-01-11T06:57:18;28.45;;;6.35;;
68803;SDS011;55787;52.678;13.314;2024-01-11T06:59:45;32.33;;;6.72;;
68803;SDS011;55787;52.678;13.314;2024-01-11T07:02:12;29.42;;;6.43;;
68803;SDS011;55787;52.678;13.314;2024-01-11T07:04:43;32.55;;;7.95;;
68803;SDS011;55787;52.678;13.314;2024-01-11T07:07:11;33.73;;;7.20;;
68803;SDS011;55787;52.678;13.314;2024-01-11T07:09:37;35.17;;;6.80;;
68803;SDS011;55787;52.678;13.314;2024-01-11T07:12:04;30.60;;;6.55;;
68803;SDS011;55787;52.678;13.314;2024-01-11T07:14:31;33.13;;;6.68;;
68803;SDS011;55787;52.678;13.314;2024-01-11T07:16:58;34.88;;;7.32;;
68803;SDS011;55787;52.678;13.314;2024-01-11T07:19:25;33.60;;;7.13;;
68803;SDS011;55787;52.678;13.314;2024-01-11T07:21:51;18.35;;;4.47;;
68803;SDS011;55787;52.678;13.314;2024-01-11T07:24:18;25.30;;;6.13;;
68803;SDS011;55787;52.678;13.314;2024-01-11T07:26:44;28.85;;;6.88;;
68803;SDS011;55787;52.678;13.314;2024-01-11T07:29:11;30.08;;;6.72;;
68803;SDS011;55787;52.678;13.314;2024-01-11T07:31:38;25.77;;;6.07;;
68803;SDS011;55787;52.678;13.314;2024-01-11T07:34:04;28.08;;;6.68;;
68803;SDS011;55787;52.678;13.314;2024-01-11T07:36:31;26.88;;;7.15;;
68803;SDS011;55787;52.678;13.314;2024-01-11T07:38:58;29.05;;;6.53;;
68803;SDS011;55787;52.678;13.314;2024-01-11T07:41:24;29.20;;;6.07;;
68803;SDS011;55787;52.678;13.314;2024-01-11T07:43:51;29.93;;;6.73;;
68803;SDS011;55787;52.678;13.314;2024-01-11T07:46:20;27.85;;;6.78;;
68803;SDS011;55787;52.678;13.314;2024-01-11T07:49:01;33.53;;;7.80;;
68803;SDS011;55787;52.678;13.314;2024-01-11T07:51:28;28.88;;;6.53;;
68803;SDS011;55787;52.678;13.314;2024-01-11T07:53:54;27.88;;;6.25;;
68803;SDS011;55787;52.678;13.314;2024-01-11T07:56:21;24.77;;;6.20;;
68803;SDS011;55787;52.678;13.314;2024-01-11T07:58:48;30.45;;;6.93;;
68803;SDS011;55787;52.678;13.314;2024-01-11T08:01:15;28.85;;;6.72;;
68803;SDS011;55787;52.678;13.314;2024-01-11T08:03:43;26.98;;;6.80;;
68803;SDS011;55787;52.678;13.314;2024-01-11T08:06:14;28.10;;;6.93;;
68803;SDS011;55787;52.678;13.314;2024-01-11T08:08:40;25.03;;;6.00;;
68803;SDS011;55787;52.678;13.314;2024-01-11T08:11:07;22.42;;;6.50;;
68803;SDS011;55787;52.678;13.314;2024-01-11T08:13:34;24.08;;;6.45;;
68803;SDS011;55787;52.678;13.314;2024-01-11T08:16:04;21.35;;;5.22;;
68803;SDS011;55787;52.678;13.314;2024-01-11T08:18:33;24.05;;;5.60;;
68803;SDS011;55787;52.678;13.314;2024-01-11T08:21:00;24.00;;;5.57;;
68803;SDS011;55787;52.678;13.314;2024-01-11T08:23:27;24.02;;;5.75;;
68803;SDS011;55787;52.678;13.314;2024-01-11T08:25:54;19.90;;;5.45;;
68803;SDS011;55787;52.678;13.314;2024-01-11T08:28:20;20.92;;;5.63;;
68803;SDS011;55787;52.678;13.314;2024-01-11T08:30:47;20.33;;;4.57;;
68803;SDS011;55787;52.678;13.314;2024-01-11T08:33:14;21.17;;;5.57;;
68803;SDS011;55787;52.678;13.314;2024-01-11T08:35:41;19.65;;;4.70;;
68803;SDS011;55787;52.678;13.314;2024-01-11T08:38:08;20.67;;;4.90;;
68803;SDS011;55787;52.678;13.314;2024-01-11T08:40:35;24.52;;;5.35;;
68803;SDS011;55787;52.678;13.314;2024-01-11T08:43:02;19.38;;;4.63;;
68803;SDS011;55787;52.678;13.314;2024-01-11T08:45:30;19.97;;;4.97;;
68803;SDS011;55787;52.678;13.314;2024-01-11T08:47:57;15.88;;;3.80;;
68803;SDS011;55787;52.678;13.314;2024-01-11T08:50:24;21.25;;;4.90;;
68803;SDS011;55787;52.678;13.314;2024-01-11T08:52:54;25.05;;;6.70;;
68803;SDS011;55787;52.678;13.314;2024-01-11T08:55:22;17.75;;;4.90;;
68803;SDS011;55787;52.678;13.314;2024-01-11T08:57:49;17.53;;;4.00;;
68803;SDS011;55787;52.678;13.314;2024-01-11T09:00:16;19.40;;;5.63;;
68803;SDS011;55787;52.678;13.314;2024-01-11T09:02:45;16.38;;;4.80;;
68803;SDS011;55787;52.678;13.314;2024-01-11T09:05:15;20.00;;;4.97;;
68803;SDS011;55787;52.678;13.314;2024-01-11T09:07:43;20.40;;;5.22;;
68803;SDS011;55787;52.678;13.314;2024-01-11T09:10:09;18.80;;;4.33;;
68803;SDS011;55787;52.678;13.314;2024-01-11T09:12:37;19.55;;;4.32;;
68803;SDS011;55787;52.678;13.314;2024-01-11T09:15:05;18.83;;;4.88;;
68803;SDS011;55787;52.678;13.314;2024-01-11T09:17:32;20.35;;;5.43;;
68803;SDS011;55787;52.678;13.314;2024-01-11T09:19:59;19.98;;;5.07;;
68803;SDS011;55787;52.678;13.314;2024-01-11T09:22:26;18.90;;;4.67;;
68803;SDS011;55787;52.678;13.314;2024-01-11T09:24:54;17.15;;;4.57;;
68803;SDS011;55787;52.678;13.314;2024-01-11T09:27:20;17.15;;;4.80;;
68803;SDS011;55787;52.678;13.314;2024-01-11T09:29:47;18.85;;;4.95;;
68803;SDS011;55787;52.678;13.314;2024-01-11T09:32:17;16.17;;;4.20;;
68803;SDS011;55787;52.678;13.314;2024-01-11T09:34:43;17.53;;;4.93;;
68803;SDS011;55787;52.678;13.314;2024-01-11T09:37:12;17.52;;;4.40;;
68803;SDS011;55787;52.678;13.314;2024-01-11T09:39:38;18.50;;;4.82;;
68803;SDS011;55787;52.678;13.314;2024-01-11T09:42:08;18.60;;;5.28;;
68803;SDS011;55787;52.678;13.314;2024-01-11T09:44:36;19.75;;;4.75;;
68803;SDS011;55787;52.678;13.314;2024-01-11T09:47:07;20.60;;;5.23;;
68803;SDS011;55787;52.678;13.314;2024-01-11T09:49:40;19.98;;;4.75;;
68803;SDS011;55787;52.678;13.314;2024-01-11T09:52:07;18.75;;;5.32;;
68803;SDS011;55787;52.678;13.314;2024-01-11T09:54:37;20.95;;;5.47;;
68803;SDS011;55787;52.678;13.314;2024-01-11T09:57:04;21.85;;;5.63;;
68803;SDS011;55787;52.678;13.314;2024-01-11T09:59:32;20.30;;;4.47;;
68803;SDS011;55787;52.678;13.314;2024-01-11T10:02:02;20.17;;;5.13;;
68803;SDS011;55787;52.678;13.314;2024-01-11T10:04:30;22.02;;;5.93;;
68803;SDS011;55787;52.678;13.314;2024-01-11T10:06:56;21.23;;;5.47;;
68803;SDS011;55787;52.678;13.314;2024-01-11T10:09:24;22.10;;;5.95;;
68803;SDS011;55787;52.678;13.314;2024-01-11T10:11:50;25.23;;;5.67;;
68803;SDS011;55787;52.678;13.314;2024-01-11T10:14:20;20.42;;;5.18;;
68803;SDS011;55787;52.678;13.314;2024-01-11T10:16:47;21.67;;;5.20;;
68803;SDS011;55787;52.678;13.314;2024-01-11T10:19:14;20.77;;;5.93;;
68803;SDS011;55787;52.678;13.314;2024-01-11T10:21:43;20.45;;;5.53;;
68803;SDS011;55787;52.678;13.314;2024-01-11T10:24:10;16.97;;;4.67;;
68803;SDS011;55787;52.678;13.314;2024-01-11T10:26:43;22.70;;;5.93;;
68803;SDS011;55787;52.678;13.314;2024-01-11T10:29:10;21.90;;;6.20;;
68803;SDS011;55787;52.678;13.314;2024-01-11T10:31:39;22.20;;;5.90;;
68803;SDS011;55787;52.678;13.314;2024-01-11T10:34:06;20.65;;;5.93;;
68803;SDS011;55787;52.678;13.314;2024-01-11T10:36:33;22.60;;;5.77;;
68803;SDS011;55787;52.678;13.314;2024-01-11T10:39:01;22.50;;;5.93;;
68803;SDS011;55787;52.678;13.314;2024-01-11T10:41:32;22.25;;;6.28;;
68803;SDS011;55787;52.678;13.314;2024-01-11T10:44:04;22.63;;;6.30;;
68803;SDS011;55787;52.678;13.314;2024-01-11T10:46:38;22.08;;;6.30;;
68803;SDS011;55787;52.678;13.314;2024-01-11T10:49:06;25.30;;;6.13;;
68803;SDS011;55787;52.678;13.314;2024-01-11T10:51:35;22.55;;;5.90;;
68803;SDS011;55787;52.678;13.314;2024-01-11T10:54:01;22.42;;;6.50;;
68803;SDS011;55787;52.678;13.314;2024-01-11T10:56:28;19.23;;;5.55;;
68803;SDS011;55787;52.678;13.314;2024-01-11T10:58:57;22.35;;;6.28;;
68803;SDS011;55787;52.678;13.314;2024-01-11T11:01:24;25.97;;;6.87;;
68803;SDS011;55787;52.678;13.314;2024-01-11T11:03:52;24.88;;;6.18;;
68803;SDS011;55787;52.678;13.314;2024-01-11T11:06:22;27.40;;;8.38;;
68803;SDS011;55787;52.678;13.314;2024-01-11T11:08:49;28.88;;;10.00;;
68803;SDS011;55787;52.678;13.314;2024-01-11T11:11:17;26.98;;;8.88;;
68803;SDS011;55787;52.678;13.314;2024-01-11T11:13:46;25.70;;;7.40;;
68803;SDS011;55787;52.678;13.314;2024-01-11T11:16:14;27.45;;;7.03;;
68803;SDS011;55787;52.678;13.314;2024-01-11T11:18:41;24.42;;;6.80;;
68803;SDS011;55787;52.678;13.314;2024-01-11T11:21:11;28.20;;;8.82;;
68803;SDS011;55787;52.678;13.314;2024-01-11T11:23:38;24.42;;;7.13;;
68803;SDS011;55787;52.678;13.314;2024-01-11T11:26:05;26.70;;;7.37;;
68803;SDS011;55787;52.678;13.314;2024-01-11T11:28:36;26.50;;;7.80;;
68803;SDS011;55787;52.678;13.314;2024-01-11T11:31:03;26.05;;;7.68;;
68803;SDS011;55787;52.678;13.314;2024-01-11T11:33:29;29.33;;;8.02;;
68803;SDS011;55787;52.678;13.314;2024-01-11T11:35:58;32.80;;;8.30;;
68803;SDS011;55787;52.678;13.314;2024-01-11T11:38:26;27.77;;;8.50;;
68803;SDS011;55787;52.678;13.314;2024-01-11T11:40:57;30.02;;;9.30;;
68803;SDS011;55787;52.678;13.314;2024-01-11T11:43:26;28.20;;;8.50;;
68803;SDS011;55787;52.678;13.314;2024-01-11T11:45:54;29.13;;;8.98;;
68803;SDS011;55787;52.678;13.314;2024-01-11T11:53:33;26.35;;;7.28;;
68803;SDS011;55787;52.678;13.314;2024-01-11T11:56:01;28.65;;;7.55;;
68803;SDS011;55787;52.678;13.314;2024-01-11T11:58:29;27.45;;;7.95;;
68803;SDS011;55787;52.678;13.314;2024-01-11T12:00:59;26.13;;;7.68;;
68803;SDS011;55787;52.678;13.314;2024-01-11T12:03:28;25.60;;;7.63;;
68803;SDS011;55787;52.678;13.314;2024-01-11T12:05:59;27.45;;;8.93;;
68803;SDS011;55787;52.678;13.314;2024-01-11T12:08:27;29.08;;;9.13;;
68803;SDS011;55787;52.678;13.314;2024-01-11T12:10:54;24.58;;;6.35;;
68803;SDS011;55787;52.678;13.314;2024-01-11T12:13:20;23.30;;;7.10;;
68803;SDS011;55787;52.678;13.314;2024-01-11T12:15:47;21.67;;;6.03;;
68803;SDS011;55787;52.678;13.314;2024-01-11T12:18:14;21.55;;;5.38;;
68803;SDS011;55787;52.678;13.314;2024-01-11T12:20:41;23.70;;;7.20;;
68803;SDS011;55787;52.678;13.314;2024-01-11T12:23:09;21.73;;;6.88;;
68803;SDS011;55787;52.678;13.314;2024-01-11T12:25:35;22.85;;;6.95;;
68803;SDS011;55787;52.678;13.314;2024-01-11T12:28:02;23.80;;;6.00;;
68803;SDS011;55787;52.678;13.314;2024-01-11T12:30:29;23.58;;;6.50;;
68803;SDS011;55787;52.678;13.314;2024-01-11T12:32:56;21.90;;;7.00;;
68803;SDS011;55787;52.678;13.314;2024-01-11T12:35:23;23.90;;;8.50;;
68803;SDS011;55787;52.678;13.314;2024-01-11T12:40:21;21.30;;;6.70;;
68803;SDS011;55787;52.678;13.314;2024-01-11T12:42:48;22.90;;;8.20;;
68803;SDS011;55787;52.678;13.314;2024-01-11T12:45:16;18.92;;;5.47;;
68803;SDS011;55787;52.678;13.314;2024-01-11T12:47:43;16.58;;;4.93;;
68803;SDS011;55787;52.678;13.314;2024-01-11T12:50:13;17.75;;;4.65;;
68803;SDS011;55787;52.678;13.314;2024-01-11T12:52:40;18.33;;;4.80;;
68803;SDS011;55787;52.678;13.314;2024-01-11T12:55:08;17.55;;;4.97;;
68803;SDS011;55787;52.678;13.314;2024-01-11T12:57:44;16.90;;;4.35;;
68803;SDS011;55787;52.678;13.314;2024-01-11T13:00:11;17.05;;;4.72;;
68803;SDS011;55787;52.678;13.314;2024-01-11T13:02:42;17.00;;;4.85;;
68803;SDS011;55787;52.678;13.314;2024-01-11T13:05:12;16.40;;;4.27;;
68803;SDS011;55787;52.678;13.314;2024-01-11T13:07:39;17.17;;;4.35;;
68803;SDS011;55787;52.678;13.314;2024-01-11T13:10:05;15.95;;;4.03;;
68803;SDS011;55787;52.678;13.314;2024-01-11T13:12:32;17.27;;;4.43;;
68803;SDS011;55787;52.678;13.314;2024-01-11T13:14:59;13.40;;;3.00;;
68803;SDS011;55787;52.678;13.314;2024-01-11T13:17:25;12.90;;;3.13;;
68803;SDS011;55787;52.678;13.314;2024-01-11T13:19:54;13.50;;;3.42;;
68803;SDS011;55787;52.678;13.314;2024-01-11T13:22:20;12.60;;;2.83;;
68803;SDS011;55787;52.678;13.314;2024-01-11T13:24:47;13.63;;;3.58;;
68803;SDS011;55787;52.678;13.314;2024-01-11T13:27:13;17.55;;;3.88;;
68803;SDS011;55787;52.678;13.314;2024-01-11T13:29:41;13.37;;;3.33;;
68803;SDS011;55787;52.678;13.314;2024-01-11T13:32:08;15.00;;;3.65;;
68803;SDS011;55787;52.678;13.314;2024-01-11T13:34:38;15.05;;;3.70;;
68803;SDS011;55787;52.678;13.314;2024-01-11T13:37:04;13.73;;;3.72;;
68803;SDS011;55787;52.678;13.314;2024-01-11T13:39:32;17.38;;;3.78;;
68803;SDS011;55787;52.678;13.314;2024-01-11T13:41:58;14.00;;;3.73;;
68803;SDS011;55787;52.678;13.314;2024-01-11T13:44:25;16.40;;;4.03;;
68803;SDS011;55787;52.678;13.314;2024-01-11T13:46:51;15.27;;;3.88;;
68803;SDS011;55787;52.678;13.314;2024-01-11T13:49:18;17.58;;;4.53;;
68803;SDS011;55787;52.678;13.314;2024-01-11T13:51:45;16.23;;;4.20;;
68803;SDS011;55787;52.678;13.314;2024-01-11T13:54:25;16.63;;;3.97;;
68803;SDS011;55787;52.678;13.314;2024-01-11T13:56:52;17.13;;;4.30;;
68803;SDS011;55787;52.678;13.314;2024-01-11T13:59:19;18.10;;;4.32;;
68803;SDS011;55787;52.678;13.314;2024-01-11T14:01:46;16.23;;;4.80;;
68803;SDS011;55787;52.678;13.314;2024-01-11T14:04:13;19.40;;;4.82;;
68803;SDS011;55787;52.678;13.314;2024-01-11T14:06:39;19.93;;;4.97;;
68803;SDS011;55787;52.678;13.314;2024-01-11T14:09:06;17.95;;;4.80;;
68803;SDS011;55787;52.678;13.314;2024-01-11T14:11:35;16.60;;;4.07;;
68803;SDS011;55787;52.678;13.314;2024-01-11T14:14:02;16.00;;;3.53;;
68803;SDS011;55787;52.678;13.314;2024-01-11T14:16:29;16.42;;;4.10;;
68803;SDS011;55787;52.678;13.314;2024-01-11T14:18:56;15.17;;;4.13;;
68803;SDS011;55787;52.678;13.314;2024-01-11T14:21:23;18.17;;;4.10;;
68803;SDS011;55787;52.678;13.314;2024-01-11T14:23:51;16.02;;;4.20;;
68803;SDS011;55787;52.678;13.314;2024-01-11T14:26:17;17.25;;;4.03;;
68803;SDS011;55787;52.678;13.314;2024-01-11T14:28:44;19.35;;;4.75;;
68803;SDS011;55787;52.678;13.314;2024-01-11T14:31:11;16.50;;;4.07;;
68803;SDS011;55787;52.678;13.314;2024-01-11T14:33:38;18.13;;;4.82;;